createdAt,value
2023-04-12T00:00:13.660Z,97056.59
2023-04-12T00:02:22.240Z,97049.06
2023-04-12T00:04:34.797Z,97044.19
2023-04-12T00:06:42.946Z,97044.53
2023-04-12T00:08:50.738Z,97041.66
2023-04-12T00:10:58.575Z,97037.63
2023-04-12T00:13:07.197Z,97039.13
2023-04-12T00:15:15.522Z,97032.34
2023-04-12T00:17:23.377Z,97031.31
2023-04-12T00:19:34.277Z,97028.66
2023-04-12T00:21:42.330Z,97031.72
2023-04-12T00:23:50.372Z,97028.66
2023-04-12T00:25:58.175Z,97023.25
2023-04-12T00:28:06.418Z,97023.56
2023-04-12T00:30:15.123Z,97017.22
2023-04-12T00:32:23.828Z,97015.22
2023-04-12T00:34:34.623Z,97014.56
2023-04-12T00:36:42.500Z,97014.34
2023-04-12T00:38:51.339Z,97012.56
2023-04-12T00:40:59.217Z,97013.63
2023-04-12T00:43:07.023Z,97009.28
2023-04-12T00:45:14.906Z,97005.47
2023-04-12T00:47:23.641Z,97010.78
2023-04-12T00:49:37.244Z,97004.22
2023-04-12T00:51:45.248Z,97009.47
2023-04-12T00:53:53.110Z,96999.00
2023-04-12T00:56:01.938Z,96996.22
2023-04-12T00:58:09.892Z,96997.19
2023-04-12T01:00:18.726Z,96988.06
2023-04-12T01:02:26.986Z,96986.78
2023-04-12T01:04:38.177Z,96978.28
2023-04-12T01:07:04.566Z,96982.00
2023-04-12T01:09:22.225Z,96975.94
2023-04-12T01:11:37.147Z,96968.97
2023-04-12T01:13:53.107Z,96972.97
2023-04-12T01:16:12.820Z,96964.56
2023-04-12T01:18:28.244Z,96963.13
2023-04-12T01:20:45.110Z,96956.75
2023-04-12T01:23:10.050Z,96946.88
2023-04-12T01:25:29.255Z,96946.56
2023-04-12T01:27:45.697Z,96943.81
2023-04-12T01:29:54.148Z,96944.53
2023-04-12T01:32:05.026Z,96940.59
2023-04-12T01:34:15.140Z,96926.59
2023-04-12T01:36:26.481Z,96935.16
2023-04-12T01:38:36.272Z,96919.13
2023-04-12T01:40:45.888Z,96923.03
2023-04-12T01:43:07.362Z,96912.78
2023-04-12T01:45:15.350Z,96907.56
2023-04-12T01:47:23.550Z,96904.84
2023-04-12T01:49:45.907Z,96898.22
2023-04-12T01:51:58.637Z,96892.38
2023-04-12T01:54:12.736Z,96876.81
2023-04-12T01:56:23.223Z,96873.69
2023-04-12T01:58:34.943Z,96868.41
2023-04-12T02:00:44.805Z,96864.66
2023-04-12T02:02:53.580Z,96864.31
2023-04-12T02:05:04.255Z,96862.44
2023-04-12T02:07:12.426Z,96841.75
2023-04-12T02:09:20.364Z,96839.22
2023-04-12T02:11:28.477Z,96835.47
2023-04-12T02:13:38.982Z,96823.00
2023-04-12T02:15:47.075Z,96815.19
2023-04-12T02:17:55.356Z,96804.50
2023-04-12T02:20:04.103Z,96800.78
2023-04-12T02:22:12.306Z,96793.53
2023-04-12T02:24:20.724Z,96780.66
2023-04-12T02:26:28.664Z,96783.69
2023-04-12T02:28:39.152Z,96769.53
2023-04-12T02:30:49.539Z,96759.38
2023-04-12T02:32:58.119Z,96752.06
2023-04-12T02:35:13.231Z,96741.91
2023-04-12T02:37:22.234Z,96735.50
2023-04-12T02:39:32.341Z,96734.94
2023-04-12T02:41:40.552Z,96722.69
2023-04-12T02:43:55.837Z,96710.97
2023-04-12T02:46:04.467Z,96708.34
2023-04-12T02:48:19.920Z,96709.53
2023-04-12T02:50:28.025Z,96704.09
2023-04-12T02:52:43.132Z,96701.84
2023-04-12T02:54:52.937Z,96695.59
2023-04-12T02:57:01.761Z,96693.91
2023-04-12T02:59:19.071Z,96680.91
2023-04-12T03:01:46.981Z,96680.47
2023-04-12T03:04:04.441Z,96680.25
2023-04-12T03:06:24.529Z,96664.53
2023-04-12T03:08:32.438Z,96660.59
2023-04-12T03:10:40.222Z,96653.00
2023-04-12T03:12:48.064Z,96650.25
2023-04-12T03:15:01.354Z,96639.81
2023-04-12T03:17:09.556Z,96625.09
2023-04-12T03:19:18.180Z,96623.44
2023-04-12T03:21:33.345Z,96619.09
2023-04-12T03:23:42.636Z,96615.50
2023-04-12T03:25:57.542Z,96604.63
2023-04-12T03:28:15.646Z,96599.97
2023-04-12T03:30:32.485Z,96591.97
2023-04-12T03:32:40.418Z,96587.53
2023-04-12T03:34:49.917Z,96585.44
2023-04-12T03:37:03.886Z,96585.44
2023-04-12T03:39:23.152Z,96579.75
2023-04-12T03:41:33.073Z,96570.88
2023-04-12T03:43:44.458Z,96570.75
2023-04-12T03:46:01.111Z,96568.13
2023-04-12T03:48:09.125Z,96558.09
2023-04-12T03:50:23.746Z,96551.13
2023-04-12T03:52:37.185Z,96558.75
2023-04-12T03:54:47.558Z,96550.63
2023-04-12T03:57:03.127Z,96539.88
2023-04-12T03:59:24.319Z,96537.88
2023-04-12T04:01:34.962Z,96533.66
2023-04-12T04:03:43.824Z,96527.31
2023-04-12T04:06:04.890Z,96524.78
2023-04-12T04:08:13.463Z,96521.19
2023-04-12T04:10:31.249Z,96521.63
2023-04-12T04:12:39.060Z,96523.63
2023-04-12T04:14:47.839Z,96516.66
2023-04-12T04:17:08.544Z,96520.13
2023-04-12T04:19:16.753Z,96507.47
2023-04-12T04:21:27.274Z,96508.28
2023-04-12T04:23:39.161Z,96507.16
2023-04-12T04:25:47.975Z,96495.41
2023-04-12T04:27:55.851Z,96486.88
2023-04-12T04:30:07.910Z,96480.19
2023-04-12T04:32:20.936Z,96478.81
2023-04-12T04:34:29.810Z,96473.72
2023-04-12T04:36:48.249Z,96463.59
2023-04-12T04:39:04.090Z,96470.03
2023-04-12T04:41:23.173Z,96462.53
2023-04-12T04:43:40.227Z,96464.56
2023-04-12T04:45:50.944Z,96457.56
2023-04-12T04:48:01.656Z,96453.88
2023-04-12T04:50:10.956Z,96453.16
2023-04-12T04:52:19.800Z,96452.38
2023-04-12T04:54:29.268Z,96454.06
2023-04-12T04:56:37.461Z,96455.69
2023-04-12T04:58:48.968Z,96433.41
2023-04-12T05:00:59.840Z,96451.97
2023-04-12T05:03:16.331Z,96451.78
2023-04-12T05:05:27.914Z,96448.16
2023-04-12T05:07:43.627Z,96448.47
2023-04-12T05:09:54.464Z,96454.22
2023-04-12T05:12:02.404Z,96451.06
2023-04-12T05:14:12.654Z,96455.25
2023-04-12T05:16:21.604Z,96449.13
2023-04-12T05:18:32.346Z,96451.88
2023-04-12T05:20:41.573Z,96440.47
2023-04-12T05:22:49.593Z,96445.75
2023-04-12T05:24:57.634Z,96439.09
2023-04-12T05:27:09.428Z,96434.84
2023-04-12T05:29:17.428Z,96435.81
2023-04-12T05:31:28.787Z,96437.09
2023-04-12T05:33:40.766Z,96436.16
2023-04-12T05:35:48.938Z,96432.00
2023-04-12T05:37:56.799Z,96430.94
2023-04-12T05:40:07.570Z,96421.25
2023-04-12T05:42:15.590Z,96416.19
2023-04-12T05:44:23.656Z,96416.63
2023-04-12T05:46:31.509Z,96413.88
2023-04-12T05:48:42.004Z,96414.63
2023-04-12T05:50:54.119Z,96406.69
2023-04-12T05:53:04.367Z,96404.78
2023-04-12T05:55:14.534Z,96396.13
2023-04-12T05:57:22.831Z,96390.41
2023-04-12T05:59:31.053Z,96383.34
2023-04-12T06:01:42.920Z,96380.81
2023-04-12T06:03:53.597Z,96376.38
2023-04-12T06:06:02.802Z,96364.25
2023-04-12T06:08:13.080Z,96359.69
2023-04-12T06:10:23.003Z,96350.69
2023-04-12T06:12:33.857Z,96345.91
2023-04-12T06:14:41.692Z,96346.88
2023-04-12T06:16:49.926Z,96342.34
2023-04-12T06:19:00.728Z,96336.69
2023-04-12T06:21:09.644Z,96337.56
2023-04-12T06:23:19.445Z,96330.03
2023-04-12T06:25:27.937Z,96325.38
2023-04-12T06:27:37.263Z,96319.97
2023-04-12T06:29:45.660Z,96317.00
2023-04-12T06:31:53.855Z,96311.09
2023-04-12T06:34:04.913Z,96302.59
2023-04-12T06:36:16.463Z,96297.31
2023-04-12T06:38:24.424Z,96298.19
2023-04-12T06:40:32.593Z,96284.09
2023-04-12T06:42:40.606Z,96289.38
2023-04-12T06:44:48.477Z,96278.59
2023-04-12T06:46:56.695Z,96283.09
2023-04-12T06:49:07.208Z,96281.78
2023-04-12T06:51:15.151Z,96267.84
2023-04-12T06:53:23.093Z,96273.88
2023-04-12T06:55:31.558Z,96268.44
2023-04-12T06:57:39.452Z,96269.34
2023-04-12T06:59:47.314Z,96260.59
2023-04-12T07:01:55.221Z,96258.66
2023-04-12T07:04:03.429Z,96264.31
2023-04-12T07:06:24.358Z,96245.38
2023-04-12T07:08:33.803Z,96242.75
2023-04-12T07:10:41.657Z,96247.06
2023-04-12T07:12:49.893Z,96248.16
2023-04-12T07:14:57.690Z,96246.38
2023-04-12T07:17:06.022Z,96245.16
2023-04-12T07:19:14.001Z,96240.25
2023-04-12T07:21:24.568Z,96227.13
2023-04-12T07:23:33.616Z,96230.50
2023-04-12T07:25:41.587Z,96219.44
2023-04-12T07:27:51.582Z,96219.78
2023-04-12T07:29:59.698Z,96225.09
2023-04-12T07:32:07.795Z,96217.75
2023-04-12T07:34:15.905Z,96214.41
2023-04-12T07:36:27.642Z,96216.78
2023-04-12T07:38:35.645Z,96201.16
2023-04-12T07:40:43.522Z,96196.44
2023-04-12T07:42:51.427Z,96200.31
2023-04-12T07:44:59.498Z,96192.56
2023-04-12T07:47:07.526Z,96187.28
2023-04-12T07:49:15.576Z,96192.00
2023-04-12T07:51:26.982Z,96198.97
2023-04-12T07:53:34.922Z,96180.41
2023-04-12T07:55:42.808Z,96184.13
2023-04-12T07:57:50.667Z,96185.22
2023-04-12T07:59:58.464Z,96173.63
2023-04-12T08:02:06.701Z,96155.06
2023-04-12T08:04:14.842Z,96159.66
2023-04-12T08:06:22.817Z,96174.97
2023-04-12T08:08:33.270Z,96181.56
2023-04-12T08:10:41.748Z,96170.97
2023-04-12T08:12:49.560Z,96182.44
2023-04-12T08:14:57.396Z,96186.16
2023-04-12T08:17:05.203Z,96188.69
2023-04-12T08:19:13.481Z,96196.00
2023-04-12T08:21:21.451Z,96190.84
2023-04-12T08:23:29.543Z,96196.63
2023-04-12T08:25:40.530Z,96201.91
2023-04-12T08:27:49.132Z,96210.31
2023-04-12T08:29:56.987Z,96202.97
2023-04-12T08:32:05.370Z,96212.69
2023-04-12T08:34:13.198Z,96218.00
2023-04-12T08:36:21.158Z,96221.09
2023-04-12T08:38:44.133Z,96226.34
2023-04-12T08:40:57.786Z,96240.56
2023-04-12T08:43:11.166Z,96243.00
2023-04-12T08:45:19.118Z,96257.22
2023-04-12T08:47:27.483Z,96254.63
2023-04-12T08:49:36.280Z,96256.06
2023-04-12T08:51:45.135Z,96252.94
2023-04-12T08:53:54.358Z,96251.47
2023-04-12T08:56:05.349Z,96261.56
2023-04-12T08:58:13.228Z,96255.97
2023-04-12T09:00:23.222Z,96254.38
2023-04-12T09:02:31.653Z,96256.94
2023-04-12T09:04:52.736Z,96255.84
2023-04-12T09:07:00.721Z,96257.22
2023-04-12T09:09:09.230Z,96265.19
2023-04-12T09:11:28.032Z,96261.72
2023-04-12T09:13:37.317Z,96264.78
2023-04-12T09:15:52.079Z,96257.97
2023-04-12T09:18:08.524Z,96259.41
2023-04-12T09:20:27.203Z,96260.63
2023-04-12T09:22:40.267Z,96242.63
2023-04-12T09:24:53.712Z,96241.50
2023-04-12T09:27:11.214Z,96242.78
2023-04-12T09:29:27.900Z,96243.53
2023-04-12T09:31:36.105Z,96245.13
2023-04-12T09:33:44.154Z,96250.91
2023-04-12T09:35:55.268Z,96249.66
2023-04-12T09:38:10.600Z,96248.00
2023-04-12T09:40:18.426Z,96254.31
2023-04-12T09:42:33.736Z,96241.78
2023-04-12T09:44:42.737Z,96243.69
2023-04-12T09:46:54.816Z,96249.44
2023-04-12T09:49:03.812Z,96249.03
2023-04-12T09:51:12.173Z,96244.47
2023-04-12T09:53:21.649Z,96244.16
2023-04-12T09:55:32.414Z,96243.63
2023-04-12T09:57:45.148Z,96250.75
2023-04-12T09:59:53.981Z,96241.94
2023-04-12T10:02:02.637Z,96243.59
2023-04-12T10:04:12.002Z,96243.72
2023-04-12T10:06:20.783Z,96249.34
2023-04-12T10:08:29.263Z,96239.38
2023-04-12T10:10:37.204Z,96240.22
2023-04-12T10:12:49.399Z,96228.13
2023-04-12T10:14:58.835Z,96236.19
2023-04-12T10:17:07.912Z,96241.72
2023-04-12T10:19:16.607Z,96251.84
2023-04-12T10:21:24.985Z,96244.03
2023-04-12T10:23:34.703Z,96243.25
2023-04-12T10:25:43.926Z,96248.03
2023-04-12T10:27:54.701Z,96254.97
2023-04-12T10:30:27.285Z,96236.97
2023-04-12T10:32:35.540Z,96229.66
2023-04-12T10:34:45.727Z,96227.53
2023-04-12T10:36:58.027Z,96232.00
2023-04-12T10:39:14.935Z,96235.56
2023-04-12T10:41:25.070Z,96225.28
2023-04-12T10:43:35.642Z,96220.53
2023-04-12T10:45:44.188Z,96223.88
2023-04-12T10:48:03.656Z,96219.53
2023-04-12T10:50:26.824Z,96222.19
2023-04-12T10:52:44.981Z,96227.66
2023-04-12T10:54:52.869Z,96220.13
2023-04-12T10:57:00.981Z,96216.63
2023-04-12T10:59:18.546Z,96217.75
2023-04-12T11:01:28.057Z,96211.00
2023-04-12T11:03:37.652Z,96214.59
2023-04-12T11:06:16.092Z,96208.72
2023-04-12T11:08:49.620Z,96201.25
2023-04-12T11:11:08.231Z,96190.09
2023-04-12T11:13:19.415Z,96191.09
2023-04-12T11:15:34.666Z,96185.56
2023-04-12T11:17:42.626Z,96172.31
2023-04-12T11:19:57.079Z,96184.06
2023-04-12T11:22:06.983Z,96172.69
2023-04-12T11:24:17.258Z,96171.22
2023-04-12T11:26:25.697Z,96190.28
2023-04-12T11:28:35.412Z,96175.22
2023-04-12T11:30:56.049Z,96174.38
2023-04-12T11:33:03.923Z,96180.91
2023-04-12T11:35:12.811Z,96150.13
2023-04-12T11:37:23.150Z,96157.97
2023-04-12T11:39:33.205Z,96167.19
2023-04-12T11:41:46.610Z,96155.31
2023-04-12T11:43:55.992Z,96163.13
2023-04-12T11:46:07.121Z,96159.97
2023-04-12T11:48:15.186Z,96157.09
2023-04-12T11:50:32.815Z,96164.00
2023-04-12T11:52:41.510Z,96162.34
2023-04-12T11:54:50.895Z,96161.31
2023-04-12T11:57:00.246Z,96170.84
2023-04-12T11:59:09.043Z,96157.28
2023-04-12T12:01:21.904Z,96161.63
2023-04-12T12:03:30.422Z,96151.25
2023-04-12T12:05:40.389Z,96153.41
2023-04-12T12:07:48.712Z,96157.97
2023-04-12T12:09:57.458Z,96147.28
2023-04-12T12:12:06.745Z,96140.06
2023-04-12T12:14:14.607Z,96145.03
2023-04-12T12:16:28.950Z,96147.44
2023-04-12T12:18:37.059Z,96145.25
2023-04-12T12:20:46.372Z,96141.56
2023-04-12T12:22:54.341Z,96139.25
2023-04-12T12:25:03.474Z,96140.06
2023-04-12T12:27:11.995Z,96143.94
2023-04-12T12:29:22.277Z,96140.06
2023-04-12T12:31:33.813Z,96149.38
2023-04-12T12:33:46.995Z,96150.69
2023-04-12T12:35:59.389Z,96148.22
2023-04-12T12:38:10.501Z,96145.50
2023-04-12T12:40:21.553Z,96157.16
2023-04-12T12:42:29.770Z,96143.78
2023-04-12T12:44:38.049Z,96135.09
2023-04-12T12:46:56.827Z,96139.75
2023-04-12T12:49:11.322Z,96131.75
2023-04-12T12:51:20.416Z,96125.97
2023-04-12T12:53:28.873Z,96126.03
2023-04-12T12:55:36.824Z,96126.16
2023-04-12T12:57:55.057Z,96137.91
2023-04-12T13:00:15.587Z,96121.97
2023-04-12T13:02:26.246Z,96122.75
2023-04-12T13:04:34.595Z,96112.41
2023-04-12T13:06:42.668Z,96110.53
2023-04-12T13:08:54.783Z,96110.16
2023-04-12T13:11:03.742Z,96119.53
2023-04-12T13:13:11.910Z,96111.66
2023-04-12T13:15:23.724Z,96112.22
2023-04-12T13:17:35.317Z,96105.47
2023-04-12T13:19:43.404Z,96099.72
2023-04-12T13:21:53.256Z,96099.41
2023-04-12T13:24:01.433Z,96091.16
2023-04-12T13:26:10.074Z,96091.31
2023-04-12T13:28:18.272Z,96087.34
2023-04-12T13:30:26.129Z,96083.66
2023-04-12T13:32:36.743Z,96071.59
2023-04-12T13:34:44.722Z,96075.44
2023-04-12T13:36:52.698Z,96061.88
2023-04-12T13:39:00.755Z,96078.09
2023-04-12T13:41:08.976Z,96077.47
2023-04-12T13:43:16.870Z,96079.97
2023-04-12T13:45:25.423Z,96070.97
2023-04-12T13:47:36.624Z,96053.19
2023-04-12T13:49:44.566Z,96057.22
2023-04-12T13:51:52.557Z,96052.31
2023-04-12T13:54:00.533Z,96061.00
2023-04-12T13:56:09.325Z,96055.63
2023-04-12T13:58:17.220Z,96067.00
2023-04-12T14:00:26.098Z,96045.47
2023-04-12T14:02:36.582Z,96050.44
2023-04-12T14:04:54.165Z,96057.47
2023-04-12T14:07:02.541Z,96059.16
2023-04-12T14:09:10.351Z,96048.53
2023-04-12T14:11:18.230Z,96051.34
2023-04-12T14:13:26.505Z,96052.22
2023-04-12T14:15:34.429Z,96047.66
2023-04-12T14:17:45.066Z,96039.94
2023-04-12T14:19:53.058Z,96058.22
2023-04-12T14:22:02.565Z,96047.88
2023-04-12T14:24:10.719Z,96051.47
2023-04-12T14:26:19.090Z,96038.47
2023-04-12T14:28:31.209Z,96045.28
2023-04-12T14:30:39.108Z,96041.81
2023-04-12T14:32:49.770Z,96050.66
2023-04-12T14:34:57.640Z,96028.31
2023-04-12T14:37:06.027Z,96026.09
2023-04-12T14:39:14.881Z,96020.63
2023-04-12T14:41:24.068Z,96019.38
2023-04-12T14:43:32.008Z,96015.28
2023-04-12T14:45:40.205Z,96012.44
2023-04-12T14:47:50.775Z,96016.22
2023-04-12T14:49:58.711Z,96024.53
2023-04-12T14:52:07.156Z,96030.22
2023-04-12T14:54:15.018Z,96027.03
2023-04-12T14:56:25.399Z,96022.41
2023-04-12T14:58:34.611Z,96022.53
2023-04-12T15:00:43.018Z,96024.47
2023-04-12T15:02:53.698Z,96040.44
2023-04-12T15:05:07.457Z,96051.09
2023-04-12T15:07:15.692Z,96045.13
2023-04-12T15:09:23.522Z,96024.56
2023-04-12T15:11:35.771Z,96025.50
2023-04-12T15:13:44.783Z,96034.84
2023-04-12T15:15:52.636Z,96035.47
2023-04-12T15:18:03.483Z,96021.81
2023-04-12T15:20:13.527Z,96025.19
2023-04-12T15:22:22.747Z,96029.78
2023-04-12T15:24:31.106Z,96024.09
2023-04-12T15:26:39.172Z,96034.66
2023-04-12T15:28:47.379Z,96040.19
2023-04-12T15:30:56.401Z,96043.84
2023-04-12T15:33:07.239Z,96088.41
2023-04-12T15:35:26.151Z,96107.34
2023-04-12T15:37:36.635Z,96103.72
2023-04-12T15:39:45.057Z,96124.63
2023-04-12T15:41:52.924Z,96119.38
2023-04-12T15:44:00.812Z,96112.84
2023-04-12T15:46:09.785Z,96110.50
2023-04-12T15:48:20.417Z,96110.88
2023-04-12T15:50:28.415Z,96104.03
2023-04-12T15:52:36.493Z,96077.88
2023-04-12T15:54:44.697Z,96090.47
2023-04-12T15:56:53.164Z,96091.59
2023-04-12T15:59:01.679Z,96099.09
2023-04-12T16:01:10.441Z,96102.44
2023-04-12T16:03:25.009Z,96090.09
2023-04-12T16:05:34.146Z,96108.84
2023-04-12T16:07:42.021Z,96117.84
2023-04-12T16:09:49.965Z,96121.59
2023-04-12T16:11:58.084Z,96133.50
2023-04-12T16:14:05.956Z,96121.78
2023-04-12T16:16:15.521Z,96125.47
2023-04-12T16:18:26.119Z,96128.53
2023-04-12T16:20:34.121Z,96133.44
2023-04-12T16:22:42.024Z,96146.66
2023-04-12T16:24:49.844Z,96148.50
2023-04-12T16:26:57.725Z,96145.16
2023-04-12T16:29:05.602Z,96148.50
2023-04-12T16:31:16.009Z,96149.22
2023-04-12T16:33:27.506Z,96156.97
2023-04-12T16:35:35.384Z,96152.22
2023-04-12T16:37:43.698Z,96147.72
2023-04-12T16:39:51.623Z,96152.06
2023-04-12T16:42:02.085Z,96141.72
2023-04-12T16:44:10.935Z,96137.94
2023-04-12T16:46:18.833Z,96145.59
2023-04-12T16:48:29.266Z,96137.66
2023-04-12T16:50:37.171Z,96132.19
2023-04-12T16:52:44.952Z,96142.16
2023-04-12T16:54:52.855Z,96143.97
2023-04-12T16:57:00.708Z,96144.09
2023-04-12T16:59:09.945Z,96138.88
2023-04-12T17:01:19.429Z,96135.66
2023-04-12T17:03:30.421Z,96147.25
2023-04-12T17:05:40.144Z,96141.81
2023-04-12T17:07:50.302Z,96135.91
2023-04-12T17:09:58.234Z,96137.56
2023-04-12T17:12:06.287Z,96146.28
2023-04-12T17:14:15.088Z,96139.13
2023-04-12T17:16:23.064Z,96138.44
2023-04-12T17:18:34.859Z,96131.69
2023-04-12T17:20:42.920Z,96140.66
2023-04-12T17:22:52.353Z,96156.00
2023-04-12T17:25:00.206Z,96157.13
2023-04-12T17:27:08.193Z,96159.50
2023-04-12T17:29:16.546Z,96164.53
2023-04-12T17:31:27.137Z,96157.03
2023-04-12T17:33:37.855Z,96156.56
2023-04-12T17:35:46.250Z,96158.94
2023-04-12T17:37:54.202Z,96151.91
2023-04-12T17:40:02.436Z,96159.97
2023-04-12T17:42:10.292Z,96153.69
2023-04-12T17:44:18.205Z,96163.63
2023-04-12T17:46:26.661Z,96167.91
2023-04-12T17:48:37.291Z,96169.72
2023-04-12T17:50:45.498Z,96159.66
2023-04-12T17:52:55.507Z,96161.59
2023-04-12T17:55:03.485Z,96162.59
2023-04-12T17:57:11.647Z,96156.09
2023-04-12T17:59:19.564Z,96151.78
2023-04-12T18:01:27.600Z,96154.56
2023-04-12T18:03:38.585Z,96141.69
2023-04-12T18:05:46.648Z,96141.41
2023-04-12T18:07:57.135Z,96127.78
2023-04-12T18:10:05.637Z,96120.81
2023-04-12T18:12:13.776Z,96123.03
2023-04-12T18:14:22.698Z,96122.00
2023-04-12T18:16:32.083Z,96118.50
2023-04-12T18:18:42.643Z,96126.59
2023-04-12T18:20:50.615Z,96129.66
2023-04-12T18:22:58.516Z,96133.94
2023-04-12T18:25:06.781Z,96140.31
2023-04-12T18:27:14.678Z,96143.44
2023-04-12T18:29:22.580Z,96143.22
2023-04-12T18:31:30.613Z,96142.97
2023-04-12T18:33:38.628Z,96141.69
2023-04-12T18:35:49.163Z,96137.75
2023-04-12T18:37:57.222Z,96145.56
2023-04-12T18:40:07.117Z,96145.56
2023-04-12T18:42:15.046Z,96147.25
2023-04-12T18:44:22.929Z,96150.78
2023-04-12T18:46:31.143Z,96152.59
2023-04-12T18:48:39.004Z,96152.88
2023-04-12T18:50:49.651Z,96153.75
2023-04-12T18:52:57.538Z,96156.72
2023-04-12T18:55:05.480Z,96173.00
2023-04-12T18:57:13.828Z,96170.59
2023-04-12T18:59:22.391Z,96174.94
2023-04-12T19:01:31.176Z,96176.63
2023-04-12T19:03:39.314Z,96182.75
2023-04-12T19:05:49.902Z,96193.03
2023-04-12T19:07:57.899Z,96189.75
2023-04-12T19:10:07.286Z,96183.59
2023-04-12T19:12:15.131Z,96183.94
2023-04-12T19:14:23.108Z,96187.94
2023-04-12T19:16:31.199Z,96180.09
2023-04-12T19:18:39.246Z,96184.19
2023-04-12T19:23:17.886Z,96196.84
2023-04-12T19:25:30.008Z,96195.75
2023-04-12T19:27:38.074Z,96199.72
2023-04-12T19:29:46.680Z,96201.28
2023-04-12T19:31:55.666Z,96198.78
2023-04-12T19:34:05.672Z,96209.38
2023-04-12T19:36:13.915Z,96216.38
2023-04-12T19:38:24.818Z,96216.00
2023-04-12T19:40:33.208Z,96218.66
2023-04-12T19:42:41.803Z,96215.72
2023-04-12T19:44:51.303Z,96223.97
2023-04-12T19:46:59.945Z,96218.75
2023-04-12T19:49:08.738Z,96222.00
2023-04-12T19:51:17.144Z,96224.34
2023-04-12T19:53:27.883Z,96206.75
2023-04-12T19:55:36.126Z,96213.00
2023-04-12T19:57:44.191Z,96222.66
2023-04-12T20:00:04.869Z,96231.53
2023-04-12T20:02:13.467Z,96228.19
2023-04-12T20:04:24.351Z,96220.38
2023-04-12T20:06:33.619Z,96223.03
2023-04-12T20:08:44.789Z,96219.16
2023-04-12T20:10:55.125Z,96216.50
2023-04-12T20:13:04.383Z,96212.28
2023-04-12T20:15:14.569Z,96221.34
2023-04-12T20:17:22.822Z,96214.84
2023-04-12T20:19:34.603Z,96213.03
2023-04-12T20:21:42.731Z,96208.09
2023-04-12T20:23:53.786Z,96215.22
2023-04-12T20:26:02.136Z,96221.63
2023-04-12T20:28:12.256Z,96232.47
2023-04-12T20:30:24.370Z,96234.69
2023-04-12T20:32:32.446Z,96242.56
2023-04-12T20:34:47.244Z,96252.50
2023-04-12T20:36:55.713Z,96260.97
2023-04-12T20:39:06.791Z,96263.13
2023-04-12T20:41:14.937Z,96269.72
2023-04-12T20:43:22.931Z,96270.34
2023-04-12T20:45:34.997Z,96267.91
2023-04-12T20:47:43.242Z,96281.16
2023-04-12T20:49:52.459Z,96288.91
2023-04-12T20:52:01.059Z,96297.34
2023-04-12T20:54:12.056Z,96308.78
2023-04-12T20:56:21.711Z,96317.19
2023-04-12T20:58:34.701Z,96314.06
2023-04-12T21:00:42.976Z,96334.66
2023-04-12T21:02:51.424Z,96352.72
2023-04-12T21:04:59.583Z,96352.88
2023-04-12T21:07:07.914Z,96338.78
2023-04-12T21:09:18.581Z,96352.19
2023-04-12T21:11:27.906Z,96353.72
2023-04-12T21:13:36.623Z,96362.34
2023-04-12T21:15:44.742Z,96344.84
2023-04-12T21:17:52.825Z,96336.31
2023-04-12T21:20:01.004Z,96339.59
2023-04-12T21:22:09.912Z,96335.94
2023-04-12T21:24:20.861Z,96333.53
2023-04-12T21:26:28.944Z,96328.56
2023-04-12T21:28:38.611Z,96326.34
2023-04-12T21:30:49.561Z,96314.25
2023-04-12T21:32:57.896Z,96297.19
2023-04-12T21:35:07.407Z,96303.00
2023-04-12T21:37:15.571Z,96308.75
2023-04-12T21:39:26.377Z,96314.06
2023-04-12T21:41:34.367Z,96312.34
2023-04-12T21:43:42.374Z,96315.97
2023-04-12T21:45:51.544Z,96307.25
2023-04-12T21:47:59.729Z,96309.31
2023-04-12T21:50:09.142Z,96311.66
2023-04-12T21:52:20.075Z,96324.53
2023-04-12T21:54:33.454Z,96319.38
2023-04-12T21:56:41.640Z,96322.91
2023-04-12T21:58:49.557Z,96311.03
2023-04-12T22:00:57.497Z,96311.72
2023-04-12T22:03:05.707Z,96306.75
2023-04-12T22:05:23.393Z,96316.16
2023-04-12T22:07:31.376Z,96323.56
2023-04-12T22:09:42.756Z,96307.72
2023-04-12T22:11:50.775Z,96299.84
2023-04-12T22:13:58.955Z,96305.81
2023-04-12T22:16:07.287Z,96329.63
2023-04-12T22:18:18.143Z,96334.78
2023-04-12T22:20:28.549Z,96339.44
2023-04-12T22:22:37.362Z,96341.41
2023-04-12T22:24:47.941Z,96350.56
2023-04-12T22:26:57.677Z,96361.59
2023-04-12T22:29:06.324Z,96367.84
2023-04-12T22:31:19.472Z,96360.25
2023-04-12T22:33:27.643Z,96366.38
2023-04-12T22:35:36.624Z,96374.19
2023-04-12T22:37:44.806Z,96375.38
2023-04-12T22:39:55.366Z,96364.06
2023-04-12T22:42:04.325Z,96361.94
2023-04-12T22:44:12.571Z,96362.38
2023-04-12T22:46:21.107Z,96363.00
2023-04-12T22:48:32.430Z,96372.63
2023-04-12T22:50:40.569Z,96389.38
2023-04-12T22:52:52.559Z,96392.94
2023-04-12T22:55:03.438Z,96392.81
2023-04-12T22:57:11.317Z,96385.44
2023-04-12T22:59:20.275Z,96383.13
2023-04-12T23:01:29.628Z,96382.47
2023-04-12T23:03:38.316Z,96401.22
2023-04-12T23:05:46.373Z,96400.72
2023-04-12T23:07:54.253Z,96403.00
2023-04-12T23:10:05.021Z,96402.50
2023-04-12T23:12:13.844Z,96406.00
2023-04-12T23:14:22.994Z,96407.16
2023-04-12T23:16:31.495Z,96402.84
2023-04-12T23:18:39.524Z,96399.88
2023-04-12T23:20:49.671Z,96407.28
2023-04-12T23:22:58.516Z,96402.22
2023-04-12T23:25:10.102Z,96403.56
2023-04-12T23:27:19.205Z,96408.72
2023-04-12T23:29:31.050Z,96400.22
2023-04-12T23:31:39.043Z,96397.56
2023-04-12T23:33:48.311Z,96392.69
2023-04-12T23:35:56.307Z,96385.75
2023-04-12T23:38:04.424Z,96390.22
2023-04-12T23:40:16.554Z,96393.25
2023-04-12T23:42:24.641Z,96397.06
2023-04-12T23:44:34.931Z,96405.41
2023-04-12T23:46:43.260Z,96407.84
2023-04-12T23:48:52.870Z,96409.84
2023-04-12T23:51:01.264Z,96405.53
2023-04-12T23:53:09.327Z,96400.00
2023-04-12T23:55:20.330Z,96408.47
2023-04-12T23:57:28.868Z,96404.56
2023-04-12T23:59:36.897Z,96411.25
